createdAt,value
2018-08-17T00:02:02.099Z,21.02
2018-08-17T00:04:30.510Z,20.92
2018-08-17T00:06:58.927Z,20.82
2018-08-17T00:09:27.367Z,20.80
2018-08-17T00:11:55.771Z,20.88
2018-08-17T00:14:24.327Z,20.76
2018-08-17T00:16:52.677Z,20.56
2018-08-17T00:19:21.089Z,20.30
2018-08-17T00:21:49.560Z,20.10
2018-08-17T00:24:17.948Z,19.93
2018-08-17T00:26:46.354Z,19.84
2018-08-17T00:29:15.116Z,19.94
2018-08-17T00:31:43.496Z,20.06
2018-08-17T00:34:11.888Z,20.06
2018-08-17T00:36:40.440Z,20.12
2018-08-17T00:39:10.128Z,20.05
2018-08-17T00:41:38.712Z,19.91
2018-08-17T00:44:07.320Z,19.88
2018-08-17T00:46:35.632Z,20.03
2018-08-17T00:49:04.156Z,20.17
2018-08-17T00:51:32.668Z,20.22
2018-08-17T00:54:01.220Z,20.13
2018-08-17T00:56:30.567Z,19.93
2018-08-17T00:58:58.948Z,19.75
2018-08-17T01:01:27.628Z,19.64
2018-08-17T01:03:55.956Z,19.58
2018-08-17T01:06:24.464Z,19.68
2018-08-17T01:08:52.904Z,19.68
2018-08-17T01:11:21.386Z,19.59
2018-08-17T01:13:49.917Z,19.61
2018-08-17T01:16:18.238Z,19.58
2018-08-17T01:18:46.559Z,19.60
2018-08-17T01:21:14.931Z,19.63
2018-08-17T01:23:43.328Z,19.52
2018-08-17T01:26:11.659Z,19.41
2018-08-17T01:28:40.031Z,19.36
2018-08-17T01:31:08.370Z,19.46
2018-08-17T01:33:36.751Z,19.60
2018-08-17T01:36:05.098Z,19.74
2018-08-17T01:38:33.404Z,19.82
2018-08-17T01:41:01.772Z,19.83
2018-08-17T01:43:30.359Z,19.89
2018-08-17T01:45:58.731Z,19.85
2018-08-17T01:48:27.100Z,19.81
2018-08-17T01:50:55.609Z,19.81
2018-08-17T01:53:23.933Z,19.82
2018-08-17T01:55:52.345Z,19.83
2018-08-17T01:58:20.702Z,19.74
2018-08-17T02:00:49.171Z,19.50
2018-08-17T02:03:17.740Z,19.31
2018-08-17T02:05:46.367Z,19.23
2018-08-17T02:08:14.719Z,19.18
2018-08-17T02:10:43.132Z,19.20
2018-08-17T02:13:11.651Z,19.26
2018-08-17T02:15:39.985Z,19.25
2018-08-17T02:18:08.523Z,19.24
2018-08-17T02:20:37.133Z,19.23
2018-08-17T02:23:05.459Z,19.20
2018-08-17T02:25:33.810Z,19.10
2018-08-17T02:28:02.391Z,18.90
2018-08-17T02:30:30.784Z,18.80
2018-08-17T02:32:59.164Z,18.75
2018-08-17T02:35:27.626Z,18.83
2018-08-17T02:37:56.003Z,18.88
2018-08-17T02:40:24.371Z,18.91
2018-08-17T02:42:52.954Z,18.93
2018-08-17T02:45:21.286Z,18.95
2018-08-17T02:47:49.749Z,18.89
2018-08-17T02:50:18.211Z,18.69
2018-08-17T02:52:46.611Z,18.65
2018-08-17T02:55:14.958Z,18.66
2018-08-17T02:57:43.541Z,18.64
2018-08-17T03:00:11.963Z,18.56
2018-08-17T03:02:40.321Z,18.59
2018-08-17T03:05:09.373Z,18.57
2018-08-17T03:07:37.735Z,18.45
2018-08-17T03:10:06.103Z,18.40
2018-08-17T03:12:34.455Z,18.44
2018-08-17T03:15:02.807Z,18.54
2018-08-17T03:17:31.206Z,18.53
2018-08-17T03:19:59.672Z,18.48
2018-08-17T03:22:28.000Z,18.41
2018-08-17T03:24:56.433Z,18.23
2018-08-17T03:27:25.003Z,18.03
2018-08-17T03:29:53.321Z,17.91
2018-08-17T03:32:21.667Z,17.94
2018-08-17T03:34:50.161Z,17.92
2018-08-17T03:37:18.600Z,17.99
2018-08-17T03:39:46.919Z,18.00
2018-08-17T03:42:15.375Z,18.10
2018-08-17T03:44:43.761Z,18.12
2018-08-17T03:47:12.088Z,17.95
2018-08-17T03:49:40.478Z,17.84
2018-08-17T03:52:08.900Z,17.89
2018-08-17T03:54:37.237Z,17.76
2018-08-17T03:57:05.896Z,17.69
2018-08-17T03:59:34.207Z,17.66
2018-08-17T04:02:02.539Z,17.65
2018-08-17T04:04:30.939Z,17.70
2018-08-17T04:06:59.327Z,17.70
2018-08-17T04:09:27.685Z,17.68
2018-08-17T04:11:56.239Z,17.73
2018-08-17T04:14:24.549Z,17.73
2018-08-17T04:16:52.967Z,17.76
2018-08-17T04:19:21.575Z,17.82
2018-08-17T04:21:49.891Z,17.76
2018-08-17T04:24:18.239Z,17.73
2018-08-17T04:26:46.707Z,17.68
2018-08-17T04:29:15.085Z,17.64
2018-08-17T04:31:43.443Z,17.65
2018-08-17T04:34:11.934Z,17.67
2018-08-17T04:36:40.287Z,17.79
2018-08-17T04:39:08.731Z,17.85
2018-08-17T04:41:37.183Z,17.78
2018-08-17T04:44:05.564Z,17.82
2018-08-17T04:46:33.929Z,17.90
2018-08-17T04:49:02.420Z,17.99
2018-08-17T04:51:30.762Z,18.06
2018-08-17T04:53:59.084Z,18.14
2018-08-17T04:56:27.551Z,18.13
2018-08-17T04:58:55.915Z,17.94
2018-08-17T05:01:24.332Z,17.96
2018-08-17T05:03:52.976Z,18.02
2018-08-17T05:06:21.319Z,17.95
2018-08-17T05:08:49.746Z,17.95
2018-08-17T05:11:18.239Z,18.00
2018-08-17T05:13:46.559Z,18.02
2018-08-17T05:16:14.911Z,18.07
2018-08-17T05:18:43.567Z,18.14
2018-08-17T05:21:11.962Z,18.15
2018-08-17T05:23:40.320Z,18.18
2018-08-17T05:26:08.764Z,18.30
2018-08-17T05:28:37.099Z,18.50
2018-08-17T05:31:05.731Z,18.56
2018-08-17T05:33:34.259Z,18.68
2018-08-17T05:36:02.650Z,18.75
2018-08-17T05:38:31.027Z,18.78
2018-08-17T05:40:59.687Z,18.80
2018-08-17T05:43:28.004Z,18.94
2018-08-17T05:45:56.505Z,19.00
2018-08-17T05:48:24.867Z,19.03
2018-08-17T05:50:53.228Z,19.16
2018-08-17T05:53:21.699Z,19.28
2018-08-17T05:55:50.188Z,19.32
2018-08-17T05:58:18.555Z,19.34
2018-08-17T06:00:46.976Z,19.42
2018-08-17T06:03:15.512Z,19.42
2018-08-17T06:05:43.890Z,19.43
2018-08-17T06:08:12.268Z,19.45
2018-08-17T06:10:40.855Z,19.47
2018-08-17T06:13:09.219Z,19.46
2018-08-17T06:15:37.573Z,19.45
2018-08-17T06:18:06.140Z,19.44
2018-08-17T06:20:34.579Z,19.49
2018-08-17T06:23:02.956Z,19.53
2018-08-17T06:25:31.538Z,19.60
2018-08-17T06:27:59.926Z,19.61
2018-08-17T06:30:28.291Z,19.63
2018-08-17T06:32:56.772Z,19.66
2018-08-17T06:35:25.171Z,19.74
2018-08-17T06:37:53.596Z,19.83
2018-08-17T06:40:22.200Z,19.95
2018-08-17T06:42:50.605Z,19.96
2018-08-17T06:45:19.114Z,20.00
2018-08-17T06:47:47.643Z,20.05
2018-08-17T06:50:15.999Z,20.19
2018-08-17T06:52:44.351Z,20.31
2018-08-17T06:55:13.099Z,20.39
2018-08-17T06:57:41.645Z,20.48
2018-08-17T07:00:14.369Z,20.54
2018-08-17T07:02:43.741Z,20.63
2018-08-17T07:05:12.274Z,20.70
2018-08-17T07:07:41.133Z,20.78
2018-08-17T07:10:11.676Z,20.85
2018-08-17T07:12:40.627Z,20.95
2018-08-17T07:15:09.338Z,21.04
2018-08-17T07:17:37.949Z,21.15
2018-08-17T07:20:07.865Z,21.22
2018-08-17T07:22:36.524Z,21.32
2018-08-17T07:25:05.563Z,21.41
2018-08-17T07:27:34.034Z,21.47
2018-08-17T07:30:02.566Z,21.52
2018-08-17T07:32:31.325Z,21.58
2018-08-17T07:34:59.926Z,21.67
2018-08-17T07:37:28.606Z,21.74
2018-08-17T07:39:57.007Z,21.87
2018-08-17T07:42:25.526Z,21.93
2018-08-17T07:44:54.107Z,21.95
2018-08-17T07:47:22.507Z,22.02
2018-08-17T07:49:50.941Z,22.15
2018-08-17T07:52:19.423Z,22.25
2018-08-17T07:54:47.856Z,22.32
2018-08-17T07:57:16.184Z,22.42
2018-08-17T07:59:44.984Z,22.50
2018-08-17T08:02:13.334Z,22.56
2018-08-17T08:04:41.685Z,22.59
2018-08-17T08:07:10.172Z,22.59
2018-08-17T08:09:38.645Z,22.66
2018-08-17T08:12:07.292Z,22.77
2018-08-17T08:14:35.853Z,22.92
2018-08-17T08:17:04.340Z,23.04
2018-08-17T08:19:32.812Z,23.12
2018-08-17T08:22:01.372Z,23.19
2018-08-17T08:24:30.548Z,23.26
2018-08-17T08:26:58.897Z,23.33
2018-08-17T08:29:27.453Z,23.44
2018-08-17T08:31:55.832Z,23.53
2018-08-17T08:34:24.228Z,23.63
2018-08-17T08:36:52.624Z,23.67
2018-08-17T08:39:21.030Z,23.78
2018-08-17T08:41:49.400Z,23.84
2018-08-17T08:44:18.056Z,23.90
2018-08-17T08:46:46.409Z,23.97
2018-08-17T08:49:14.894Z,24.01
2018-08-17T08:51:43.292Z,24.04
2018-08-17T08:54:11.652Z,24.14
2018-08-17T08:56:39.996Z,24.26
2018-08-17T08:59:08.620Z,24.38
2018-08-17T09:01:37.009Z,24.49
2018-08-17T09:04:05.348Z,24.58
2018-08-17T09:06:33.847Z,24.68
2018-08-17T09:09:03.041Z,24.79
2018-08-17T09:11:31.521Z,24.89
2018-08-17T09:14:00.072Z,24.94
2018-08-17T09:16:28.613Z,25.05
2018-08-17T09:18:56.991Z,25.17
2018-08-17T09:21:25.479Z,25.24
2018-08-17T09:23:54.200Z,25.31
2018-08-17T09:26:22.782Z,25.40
2018-08-17T09:28:51.156Z,25.54
2018-08-17T09:31:19.486Z,25.62
2018-08-17T09:33:47.832Z,25.76
2018-08-17T09:36:16.328Z,25.95
2018-08-17T09:38:44.668Z,26.14
2018-08-17T09:41:13.020Z,26.25
2018-08-17T09:43:41.504Z,26.37
2018-08-17T09:46:09.868Z,26.44
2018-08-17T09:48:38.209Z,26.50
2018-08-17T09:51:06.612Z,26.62
2018-08-17T09:53:35.046Z,26.72
2018-08-17T09:56:03.431Z,26.79
2018-08-17T09:58:31.838Z,26.78
2018-08-17T10:01:05.536Z,26.80
2018-08-17T10:03:39.088Z,26.89
2018-08-17T10:06:12.671Z,26.99
2018-08-17T10:08:46.233Z,27.03
2018-08-17T10:11:14.599Z,27.10
2018-08-17T10:13:43.020Z,27.25
2018-08-17T10:16:11.445Z,27.46
2018-08-17T10:18:44.336Z,27.66
2018-08-17T10:21:14.027Z,27.81
2018-08-17T10:23:42.112Z,27.98
2018-08-17T10:26:10.476Z,28.13
2018-08-17T10:28:38.883Z,28.23
2018-08-17T10:31:07.260Z,28.27
2018-08-17T10:33:35.624Z,28.35
2018-08-17T10:36:08.610Z,28.36
2018-08-17T10:38:37.096Z,28.47
2018-08-17T10:41:05.493Z,28.59
2018-08-17T10:43:33.876Z,28.75
2018-08-17T10:46:02.203Z,28.89
2018-08-17T10:48:30.577Z,29.05
2018-08-17T10:50:58.964Z,29.21
2018-08-17T10:53:36.423Z,29.32
2018-08-17T10:56:05.089Z,29.34
2018-08-17T10:58:34.373Z,29.26
2018-08-17T11:01:02.728Z,29.27
2018-08-17T11:03:31.217Z,29.32
2018-08-17T11:05:59.550Z,29.47
2018-08-17T11:08:27.898Z,29.64
2018-08-17T11:10:56.288Z,29.75
2018-08-17T11:13:24.816Z,29.81
2018-08-17T11:15:53.157Z,29.84
2018-08-17T11:18:21.533Z,29.87
2018-08-17T11:20:49.945Z,29.92
2018-08-17T11:23:18.284Z,30.06
2018-08-17T11:25:46.660Z,30.20
2018-08-17T11:28:15.064Z,30.21
2018-08-17T11:30:43.400Z,30.22
2018-08-17T11:33:11.853Z,30.27
2018-08-17T11:35:40.175Z,30.33
2018-08-17T11:38:08.603Z,30.39
2018-08-17T11:40:37.004Z,30.48
2018-08-17T11:43:05.353Z,30.52
2018-08-17T11:45:34.922Z,30.55
2018-08-17T11:48:03.459Z,30.60
2018-08-17T11:50:32.761Z,30.68
2018-08-17T11:53:01.115Z,30.74
2018-08-17T11:55:31.954Z,30.73
2018-08-17T11:58:01.228Z,30.69
2018-08-17T12:00:34.704Z,30.75
2018-08-17T12:03:03.150Z,30.77
2018-08-17T12:05:31.530Z,30.80
2018-08-17T12:07:59.920Z,30.85
2018-08-17T12:10:28.274Z,30.92
2018-08-17T12:13:03.284Z,31.06
2018-08-17T12:15:32.981Z,31.19
2018-08-17T12:18:01.349Z,31.32
2018-08-17T12:20:30.424Z,31.36
2018-08-17T12:22:58.900Z,31.29
2018-08-17T12:25:27.298Z,31.26
2018-08-17T12:28:01.858Z,31.36
2018-08-17T12:30:30.299Z,31.51
2018-08-17T12:32:58.727Z,31.64
2018-08-17T12:35:27.137Z,31.71
2018-08-17T12:38:00.784Z,31.80
2018-08-17T12:40:36.098Z,31.69
2018-08-17T12:43:04.469Z,31.40
2018-08-17T12:45:32.804Z,31.33
2018-08-17T12:48:01.207Z,31.33
2018-08-17T12:50:29.578Z,31.50
2018-08-17T12:52:57.919Z,31.66
2018-08-17T12:55:26.401Z,31.64
2018-08-17T12:57:54.798Z,31.66
2018-08-17T13:00:23.216Z,31.78
2018-08-17T13:02:51.688Z,31.93
2018-08-17T13:05:20.583Z,32.02
2018-08-17T13:07:48.987Z,32.13
2018-08-17T13:10:17.463Z,32.14
2018-08-17T13:12:53.486Z,32.13
2018-08-17T13:15:21.951Z,32.12
2018-08-17T13:17:50.432Z,32.19
2018-08-17T13:20:19.534Z,32.21
2018-08-17T13:22:48.103Z,32.28
2018-08-17T13:25:16.472Z,32.41
2018-08-17T13:27:44.858Z,32.54
2018-08-17T13:30:14.727Z,32.62
2018-08-17T13:32:43.782Z,32.69
2018-08-17T13:35:12.964Z,32.65
2018-08-17T13:37:41.794Z,32.66
2018-08-17T13:40:11.079Z,32.75
2018-08-17T13:42:39.520Z,32.83
2018-08-17T13:45:09.571Z,32.90
2018-08-17T13:47:37.939Z,32.93
2018-08-17T13:50:06.874Z,32.97
2018-08-17T13:52:35.499Z,32.97
2018-08-17T13:55:03.920Z,32.92
2018-08-17T13:57:32.276Z,32.96
2018-08-17T14:00:00.762Z,32.96
2018-08-17T14:02:29.145Z,32.97
2018-08-17T14:04:57.525Z,33.02
2018-08-17T14:07:25.981Z,33.12
2018-08-17T14:09:54.311Z,33.11
2018-08-17T14:12:22.700Z,33.07
2018-08-17T14:14:51.076Z,33.03
2018-08-17T14:17:19.576Z,33.02
2018-08-17T14:19:48.030Z,32.97
2018-08-17T14:22:16.473Z,33.01
2018-08-17T14:24:44.836Z,33.00
2018-08-17T14:27:13.189Z,33.00
2018-08-17T14:29:41.647Z,32.99
2018-08-17T14:32:10.645Z,32.84
2018-08-17T14:34:39.344Z,32.73
2018-08-17T14:37:07.900Z,32.74
2018-08-17T14:39:36.304Z,32.73
2018-08-17T14:42:04.775Z,32.79
2018-08-17T14:44:33.153Z,32.87
2018-08-17T14:47:01.521Z,32.89
2018-08-17T14:49:29.906Z,32.98
2018-08-17T14:51:58.548Z,33.04
2018-08-17T14:54:26.826Z,33.10
2018-08-17T14:56:55.256Z,33.08
2018-08-17T14:59:23.832Z,33.09
2018-08-17T15:01:52.184Z,33.07
2018-08-17T15:04:20.544Z,32.98
2018-08-17T15:06:49.112Z,32.92
2018-08-17T15:09:17.548Z,32.89
2018-08-17T15:11:46.115Z,32.90
2018-08-17T15:14:15.215Z,32.94
2018-08-17T15:16:43.940Z,33.02
2018-08-17T15:19:12.468Z,33.08
2018-08-17T15:21:41.467Z,33.08
2018-08-17T15:24:10.418Z,33.08
2018-08-17T15:26:38.899Z,33.08
2018-08-17T15:29:07.448Z,33.02
2018-08-17T15:31:35.931Z,32.88
2018-08-17T15:34:04.421Z,32.86
2018-08-17T15:36:32.808Z,32.90
2018-08-17T15:39:01.153Z,32.92
2018-08-17T15:41:29.617Z,32.92
2018-08-17T15:43:58.178Z,32.93
2018-08-17T15:46:26.741Z,32.92
2018-08-17T15:48:56.565Z,32.89
2018-08-17T15:51:24.956Z,32.86
2018-08-17T15:53:54.614Z,32.82
2018-08-17T15:56:23.758Z,32.82
2018-08-17T15:58:52.248Z,32.80
2018-08-17T16:01:20.701Z,32.76
2018-08-17T16:03:48.999Z,32.71
2018-08-17T16:06:17.692Z,32.70
2018-08-17T16:08:46.168Z,32.69
2018-08-17T16:11:14.592Z,32.70
2018-08-17T16:13:42.987Z,32.71
2018-08-17T16:16:11.533Z,32.70
2018-08-17T16:18:39.882Z,32.67
2018-08-17T16:21:08.320Z,32.64
2018-08-17T16:23:36.688Z,32.59
2018-08-17T16:26:05.185Z,32.56
2018-08-17T16:28:33.611Z,32.53
2018-08-17T16:31:01.979Z,32.48
2018-08-17T16:33:30.364Z,32.38
2018-08-17T16:35:59.075Z,32.32
2018-08-17T16:38:27.513Z,32.27
2018-08-17T16:40:55.928Z,32.28
2018-08-17T16:43:35.788Z,32.26
2018-08-17T16:46:04.168Z,32.23
2018-08-17T16:48:32.548Z,32.17
2018-08-17T16:51:01.024Z,32.06
2018-08-17T16:53:29.514Z,31.93
2018-08-17T16:55:57.876Z,31.88
2018-08-17T16:58:26.384Z,31.84
2018-08-17T17:00:54.931Z,31.75
2018-08-17T17:03:24.293Z,31.66
2018-08-17T17:05:57.800Z,31.58
2018-08-17T17:08:27.090Z,31.52
2018-08-17T17:10:55.484Z,31.48
2018-08-17T17:13:24.308Z,31.43
2018-08-17T17:15:52.716Z,31.41
2018-08-17T17:18:21.141Z,31.38
2018-08-17T17:20:49.684Z,31.28
2018-08-17T17:23:18.299Z,31.15
2018-08-17T17:25:46.778Z,31.05
2018-08-17T17:28:15.509Z,30.98
2018-08-17T17:30:53.797Z,30.91
2018-08-17T17:33:22.657Z,30.84
2018-08-17T17:35:51.109Z,30.72
2018-08-17T17:38:19.521Z,30.58
2018-08-17T17:40:48.244Z,30.48
2018-08-17T17:43:16.694Z,30.37
2018-08-17T17:45:45.138Z,30.29
2018-08-17T17:48:13.787Z,30.19
2018-08-17T17:50:42.148Z,30.09
2018-08-17T17:53:10.544Z,30.01
2018-08-17T17:55:44.460Z,29.92
2018-08-17T17:58:13.585Z,29.83
2018-08-17T18:00:46.173Z,29.73
2018-08-17T18:03:14.612Z,29.66
2018-08-17T18:05:43.218Z,29.58
2018-08-17T18:08:20.181Z,29.43
2018-08-17T18:10:49.061Z,29.12
2018-08-17T18:13:17.444Z,28.81
2018-08-17T18:15:46.011Z,28.60
2018-08-17T18:18:14.428Z,28.48
2018-08-17T18:20:42.934Z,28.21
2018-08-17T18:23:11.379Z,28.05
2018-08-17T18:25:39.872Z,27.83
2018-08-17T18:28:08.315Z,27.67
2018-08-17T18:30:36.773Z,27.52
2018-08-17T18:33:05.189Z,27.44
2018-08-17T18:35:33.550Z,27.40
2018-08-17T18:38:02.019Z,27.27
2018-08-17T18:40:30.638Z,27.16
2018-08-17T18:42:59.010Z,27.14
2018-08-17T18:45:27.571Z,27.09
2018-08-17T18:47:55.929Z,27.03
2018-08-17T18:50:24.295Z,27.06
2018-08-17T18:52:52.996Z,26.97
2018-08-17T18:55:21.337Z,26.84
2018-08-17T18:57:49.695Z,26.73
2018-08-17T19:00:18.293Z,26.70
2018-08-17T19:02:46.711Z,26.70
2018-08-17T19:05:15.132Z,26.67
2018-08-17T19:07:43.651Z,26.58
2018-08-17T19:10:12.101Z,26.42
2018-08-17T19:12:40.487Z,26.27
2018-08-17T19:15:11.611Z,26.25
2018-08-17T19:17:40.443Z,26.28
2018-08-17T19:20:11.611Z,26.26
2018-08-17T19:22:42.867Z,26.22
2018-08-17T19:25:13.022Z,26.16
2018-08-17T19:27:41.962Z,26.12
2018-08-17T19:30:25.733Z,26.09
2018-08-17T19:32:55.475Z,26.06
2018-08-17T19:35:23.913Z,26.02
2018-08-17T19:37:53.130Z,25.96
2018-08-17T19:40:22.589Z,25.92
2018-08-17T19:42:51.005Z,25.89
2018-08-17T19:45:20.054Z,25.84
2018-08-17T19:47:48.448Z,25.80
2018-08-17T19:50:16.801Z,25.74
2018-08-17T19:52:45.303Z,25.64
2018-08-17T19:55:13.637Z,25.50
2018-08-17T19:57:42.071Z,25.42
2018-08-17T20:00:11.659Z,25.40
2018-08-17T20:02:40.228Z,25.38
2018-08-17T20:05:08.704Z,25.24
2018-08-17T20:07:37.685Z,25.06
2018-08-17T20:10:06.394Z,24.93
2018-08-17T20:12:34.756Z,24.85
2018-08-17T20:15:04.932Z,24.76
2018-08-17T20:17:33.336Z,24.63
2018-08-17T20:20:01.823Z,24.58
2018-08-17T20:22:30.293Z,24.54
2018-08-17T20:24:58.744Z,24.38
2018-08-17T20:27:27.260Z,24.21
2018-08-17T20:30:00.716Z,24.11
2018-08-17T20:32:29.250Z,24.08
2018-08-17T20:34:57.617Z,24.09
2018-08-17T20:37:26.139Z,24.06
2018-08-17T20:39:54.509Z,24.05
2018-08-17T20:42:22.869Z,24.06
2018-08-17T20:44:51.417Z,24.00
2018-08-17T20:47:19.834Z,23.95
2018-08-17T20:49:48.206Z,23.94
2018-08-17T20:52:16.606Z,23.94
2018-08-17T20:54:44.963Z,23.90
2018-08-17T20:57:13.320Z,23.93
2018-08-17T20:59:41.908Z,23.93
2018-08-17T21:02:10.242Z,23.93
2018-08-17T21:04:38.572Z,23.93
2018-08-17T21:07:07.420Z,23.93
2018-08-17T21:09:35.805Z,23.89
2018-08-17T21:12:04.208Z,23.86
2018-08-17T21:14:32.760Z,23.80
2018-08-17T21:17:01.124Z,23.72
2018-08-17T21:19:34.738Z,23.64
2018-08-17T21:22:03.116Z,23.56
2018-08-17T21:24:31.444Z,23.54
2018-08-17T21:26:59.940Z,23.55
2018-08-17T21:29:28.530Z,23.52
2018-08-17T21:31:56.724Z,23.48
2018-08-17T21:34:25.118Z,23.42
2018-08-17T21:36:54.192Z,23.30
2018-08-17T21:39:22.604Z,23.20
2018-08-17T21:41:51.077Z,23.08
2018-08-17T21:44:20.656Z,23.02
2018-08-17T21:46:55.844Z,22.95
2018-08-17T21:49:25.376Z,22.92
2018-08-17T21:51:57.348Z,22.81
2018-08-17T21:54:25.748Z,22.69
2018-08-17T21:56:54.934Z,22.67
2018-08-17T21:59:23.374Z,22.68
2018-08-17T22:01:51.777Z,22.73
2018-08-17T22:04:20.153Z,22.82
2018-08-17T22:06:48.591Z,22.85
2018-08-17T22:09:26.957Z,22.89
2018-08-17T22:11:55.333Z,22.79
2018-08-17T22:14:23.675Z,22.70
2018-08-17T22:16:52.016Z,22.65
2018-08-17T22:19:31.803Z,22.60
2018-08-17T22:22:00.148Z,22.54
2018-08-17T22:24:28.564Z,22.41
2018-08-17T22:26:57.000Z,22.30
2018-08-17T22:29:25.424Z,22.32
2018-08-17T22:31:53.962Z,22.42
2018-08-17T22:34:22.428Z,22.50
2018-08-17T22:36:50.764Z,22.61
2018-08-17T22:39:19.098Z,22.74
2018-08-17T22:41:47.524Z,22.84
2018-08-17T22:44:20.932Z,22.91
2018-08-17T22:46:59.287Z,22.88
2018-08-17T22:49:27.621Z,22.79
2018-08-17T22:51:56.025Z,22.66
2018-08-17T22:54:24.466Z,22.69
2018-08-17T22:56:52.803Z,22.72
2018-08-17T22:59:21.140Z,22.74
2018-08-17T23:01:49.540Z,22.73
2018-08-17T23:04:17.912Z,22.77
2018-08-17T23:06:46.407Z,22.76
2018-08-17T23:09:14.670Z,22.76
2018-08-17T23:11:43.056Z,22.76
2018-08-17T23:14:15.020Z,22.76
2018-08-17T23:16:44.672Z,22.68
2018-08-17T23:19:13.008Z,22.57
2018-08-17T23:21:41.383Z,22.49
2018-08-17T23:24:10.424Z,22.45
2018-08-17T23:26:38.771Z,22.30
2018-08-17T23:29:07.840Z,22.21
2018-08-17T23:31:36.322Z,22.15
2018-08-17T23:34:04.768Z,22.09
2018-08-17T23:36:33.148Z,22.06
2018-08-17T23:39:01.624Z,22.04
2018-08-17T23:41:29.977Z,21.97
2018-08-17T23:43:58.335Z,21.96
2018-08-17T23:46:26.804Z,21.99
2018-08-17T23:48:55.120Z,22.02
2018-08-17T23:51:23.474Z,22.09
2018-08-17T23:53:51.872Z,22.12
2018-08-17T23:56:20.242Z,22.15
2018-08-17T23:58:48.580Z,22.16
